Terminal Aerodrome Forecast
Issued by NWS Huntsville, AL

Home | Current Version | Previous Version | Text Only | Print | Product List | Glossary On
Versions: 1 2 3 4 5 6 7 8 9 10 11 12 13 14 15 16 17 18 19 20 21 22 23 24 25 26 27
000
FTUS44 KHUN 292137 AAA
TAFHSV
TAF AMD
KHSV 292137Z 2922/3018 13010KT P6SM VCTS BKN060CB OVC250
     FM300000 32010G15KT P6SM VCTS BKN050CB
     FM300200 06007KT 5SM -SHRA BR SCT025 OVC040
     FM300400 09005KT P6SM BKN100
     FM301400 19008G15KT P6SM BKN120=

USA.gov is the U.S. government's official web portal to all federal, state and local government web resources and services.